Retz, Austria
Current Conditions -  °F | °C
As of 10:00 PM on Wednesday 26 Nov 2014 (Local Time) from LKNA Reporting Station
Haze Haze  
Wind Chill: 25°   Ceiling: 600
Heat Index: 34°   Visibility: 1.8mi
Dew Point: 34°   Wind: 12mph
Humidity: 100%   Direction: 120°ESE
Pressure: 30.12"   Gusts: NA
Location:  48.76°N, 15.95°E
Report Text: LKNA 262000Z 12010KT 3000 BR SCT003 OVC006 01/01 Q1020 NOSIG
Loading
Personal Weather Stations






























Interactive Weather Map New forecast layout! Learn more

10-Day Weather Forecast

Advertisements
Track Severe Weather on mobile